Novi, MI

3:05 PM EST on March 06, 2015 (GMT -0500)
Detroit Metro Wayne County | Change Station
CLOSE
Current Station
Airport
Location: Detroit Metro,
Elevation: 663 ft
Nearby Weather Stations

Elev 663 ft 42.23 °N, 83.33 °W | Updated 1 hour ago

Partly Cloudy
Partly Cloudy
21 °F
Feels Like 7 °F
N
16
Wind Variable Wind from South

Today
High -- | Low -- °F
--% Chance of Precip.
Yesterday
High -- | Low -- °F
Precip. -- in
7:01 AM 6:29 PM
Full, 99% visible
Pressure 30.42 in
Visibility 10.0 miles
Clouds Mostly Cloudy 20000 ft
Windchill 7 °F
Dew Point 4 °F
Humidity 48%
Rainfall 0.00 in
Snow Depth Not available.
UV 3 out of 12
Pollen .50 out of 12
Air Quality Not available.
Flu Activity Not available.
METAR KDTW 061853Z 19014KT 10SM BKN200 M06/M16 A3038 RMK AO2 SLP300 T10611156 $

More Conditions Fewer Conditions

Pressure 30.42 in
Visibility 10.0 miles
Clouds Mostly Cloudy 20000 ft
Windchill 7 °F
Dew Point 4 °F
Humidity 48%
Rainfall 0.00 in
Snow Depth Not available.
UV 3 out of 12
Pollen .50 out of 12
Air Quality Not available.
Flu Activity Not available.
METAR KDTW 061853Z 19014KT 10SM BKN200 M06/M16 A3038 RMK AO2 SLP300 T10611156 $

More Conditions Fewer Conditions

10-Day Weather Forecast

Almanac

Astronomy

Mar. 06, 2015 Rise Set
Actual Time
Civil Twilight
Nautical Twilight
Astronomical Twilight
Moon
Length of Visible Light
Length of Day
Tomorrow will be .
, % of the Moon is Illuminated

Today's Extremes

State Highs State Lows

Community

WunderPhotos

Upload Photos

1,803,386 photos uploaded!

WunderBlogs® & News

Nearby

Air Quality

  Air Quality AQ Index Pollutant
Not available.

Snow Depth

Station Depth Elevation

Earthquake Activity

City Distance Mag. Time & Date
Minimum magnitude displayed is 2.5.

Coastal Water Temperatures

Place Temperature

Nearby Weather Stations